Time;durP1;ratioP1;P1;durP2;ratioP2;P2;SDS_P1;SDS_P2;PMS_P1;PMS_P2;Temp;Humidity;BMP_temperature;BMP_pressure;BME280_temperature;BME280_humidity;BME280_pressure;Samples;Min_cycle;Max_cycle;Signal;HPM_P1;HPM_P2
2021/12/10 00:01:51;;;;;;;;;;;;;;;1.54;100.00;99760.13;5045665;28;19923;-44
2021/12/10 00:04:18;;;;;;;;;;;;;;;1.59;100.00;99757.09;5045511;28;19920;-45
2021/12/10 00:06:52;;;;;;;;;;;;;;;1.68;100.00;99764.22;5055752;28;20106;-45
2021/12/10 00:09:19;;;;;;;;;;;;;;;1.74;100.00;99760.25;5057724;28;19921;-46
2021/12/10 00:11:47;;;;;;;;;;;;;;;1.79;100.00;99761.50;5058337;28;19985;-44
2021/12/10 00:14:13;;;;;;;;;;;;;;;1.79;100.00;99740.44;5055095;28;19919;-43
2021/12/10 00:16:40;;;;;;;;;;;;;;;1.86;100.00;99741.56;5056079;28;20376;-44
2021/12/10 00:19:16;;;;;;;;;;;;;;;1.91;100.00;99740.38;5057702;28;20244;-45
2021/12/10 00:21:42;;;;;;;;;;;;;;;1.96;100.00;99730.25;5056355;28;19939;-46
2021/12/10 00:24:09;;;;;;;;;;;;;;;1.98;100.00;99715.16;5056944;28;20362;-45
2021/12/10 00:26:34;;;;;;;;;;;;;;;2.01;100.00;99714.91;5055651;28;20408;-47
2021/12/10 00:29:03;;;;;;;;;;;;;;;2.04;100.00;99720.72;5055009;28;19928;-45
2021/12/10 00:33:59;;;;;;;;;;;;;;;2.10;100.00;99711.44;5056619;28;19988;-47
2021/12/10 00:36:24;;;;;;;;;;;;;;;2.11;100.00;99686.78;5040567;28;19913;-44
2021/12/10 00:38:51;;;;;;;;;;;;;;;2.14;100.00;99690.94;5035990;28;20137;-45
2021/12/10 00:41:16;;;;;;;;;;;;;;;2.14;100.00;99683.03;5036984;28;20742;-44
2021/12/10 00:43:42;;;;;;;;;;;;;;;2.13;100.00;99674.31;5036800;28;20237;-45
2021/12/10 00:46:07;;;;;;;;;;;;;;;2.12;100.00;99677.94;5036316;28;20254;-47
2021/12/10 00:48:33;;;;;;;;;;;;;;;2.13;100.00;99674.31;5036307;28;20369;-47
2021/12/10 00:50:59;;;;;;;;;;;;;;;2.13;100.00;99666.41;5047411;28;19993;-43
2021/12/10 00:53:24;;;;;;;;;;;;;;;2.10;100.00;99664.03;5057130;28;19924;-47
2021/12/10 00:55:50;;;;;;;;;;;;;;;2.04;100.00;99651.44;5056518;28;19912;-43
2021/12/10 00:58:16;;;;;;;;;;;;;;;1.95;100.00;99645.19;5037913;28;20908;-44
2021/12/10 01:00:44;;;;;;;;;;;;;;;1.88;100.00;99648.47;5055735;28;19912;-46
2021/12/10 01:03:11;;;;;;;;;;;;;;;1.84;100.00;99627.69;5045548;28;20369;-46
2021/12/10 01:05:37;;;;;;;;;;;;;;;1.80;100.00;99621.03;5042137;28;19917;-46
2021/12/10 01:08:02;;;;;;;;;;;;;;;1.77;100.00;99615.22;5035785;28;19904;-44
2021/12/10 01:10:33;;;;;;;;;;;;;;;1.75;100.00;99606.59;5049287;28;20276;-45
2021/12/10 01:13:00;;;;;;;;;;;;;;;1.76;100.00;99603.00;5056190;28;19971;-43
2021/12/10 01:15:41;;;;;;;;;;;;;;;1.74;100.00;99604.94;5054486;28;20023;-44
2021/12/10 01:26:26;;;;;;;;;;;;;;;1.63;100.00;99561.13;5035000;28;19916;-44
2021/12/10 01:28:54;;;;;;;;;;;;;;;1.62;100.00;99560.31;5035787;28;20359;-46
2021/12/10 01:31:19;;;;;;;;;;;;;;;1.58;100.00;99542.28;5034970;28;20380;-48
2021/12/10 01:33:44;;;;;;;;;;;;;;;1.54;100.00;99547.00;5035629;28;20631;-44
2021/12/10 01:36:10;;;;;;;;;;;;;;;1.53;100.00;99547.13;5036340;28;19985;-45
2021/12/10 01:38:37;;;;;;;;;;;;;;;1.50;100.00;99535.09;5035430;28;20399;-43
2021/12/10 01:41:07;;;;;;;;;;;;;;;1.46;100.00;99531.91;5034954;28;19913;-46
2021/12/10 01:43:34;;;;;;;;;;;;;;;1.42;100.00;99524.41;5034268;28;19921;-44
2021/12/10 01:46:07;;;;;;;;;;;;;;;1.38;100.00;99526.47;5033129;28;20339;-46
2021/12/10 01:48:35;;;;;;;;;;;;;;;1.34;100.00;99516.34;5034359;28;19952;-46
2021/12/10 01:51:01;;;;;;;;;;;;;;;1.32;100.00;99518.28;5035095;28;20358;-43
2021/12/10 01:53:29;;;;;;;;;;;;;;;1.28;100.00;99509.84;5034816;28;19963;-44
2021/12/10 01:55:56;;;;;;;;;;;;;;;1.26;100.00;99506.50;5017800;28;19975;-43
2021/12/10 01:58:23;;;;;;;;;;;;;;;1.22;100.00;99505.94;5034009;28;20371;-44
2021/12/10 02:00:52;;;;;;;;;;;;;;;1.22;100.00;99505.09;5035880;28;20351;-44
2021/12/10 02:03:17;;;;;;;;;;;;;;;1.21;100.00;99503.44;5033750;28;19935;-45
2021/12/10 02:05:42;;;;;;;;;;;;;;;1.21;100.00;99504.28;5033676;28;19913;-44
2021/12/10 02:08:08;;;;;;;;;;;;;;;1.21;100.00;99492.94;5034896;28;20093;-45
2021/12/10 02:10:34;;;;;;;;;;;;;;;1.19;100.00;99489.56;5034974;28;19925;-45
2021/12/10 02:13:00;;;;;;;;;;;;;;;1.16;100.00;99477.56;5035035;28;20019;-44
2021/12/10 02:15:28;;;;;;;;;;;;;;;1.18;100.00;99477.41;5033259;28;19920;-49
2021/12/10 02:17:55;;;;;;;;;;;;;;;1.17;100.00;99468.72;5035406;28;19913;-45
2021/12/10 02:20:27;;;;;;;;;;;;;;;1.17;100.00;99459.97;5033352;28;20375;-45
2021/12/10 02:22:52;;;;;;;;;;;;;;;1.19;100.00;99460.66;5034484;28;19932;-44
2021/12/10 02:25:20;;;;;;;;;;;;;;;1.17;100.00;99454.72;5034456;28;20075;-46
2021/12/10 02:27:46;;;;;;;;;;;;;;;1.17;100.00;99444.19;5035482;28;20497;-44
2021/12/10 02:30:13;;;;;;;;;;;;;;;1.14;100.00;99426.91;5034350;28;19913;-43
2021/12/10 02:32:38;;;;;;;;;;;;;;;1.17;100.00;99429.25;5016198;28;19931;-45
2021/12/10 02:35:06;;;;;;;;;;;;;;;1.17;100.00;99423.16;5033725;28;20279;-46
2021/12/10 02:37:31;;;;;;;;;;;;;;;1.16;100.00;99414.44;5034264;28;19913;-47
2021/12/10 02:39:57;;;;;;;;;;;;;;;1.18;100.00;99417.75;5034485;28;19917;-44
2021/12/10 02:42:22;;;;;;;;;;;;;;;1.18;100.00;99403.78;5025352;28;19913;-45
2021/12/10 02:44:47;;;;;;;;;;;;;;;1.18;100.00;99406.41;5054356;28;19912;-47
2021/12/10 02:47:12;;;;;;;;;;;;;;;1.20;100.00;99401.84;5055149;28;20025;-45
2021/12/10 02:49:38;;;;;;;;;;;;;;;1.20;100.00;99392.16;5053169;28;20007;-43
2021/12/10 02:52:04;;;;;;;;;;;;;;;1.21;100.00;99390.38;5054390;28;20042;-45
2021/12/10 02:54:36;;;;;;;;;;;;;;;1.25;100.00;99397.00;5055009;28;20354;-45
2021/12/10 02:57:05;;;;;;;;;;;;;;;1.29;100.00;99386.09;5054255;28;19912;-44
2021/12/10 02:59:30;;;;;;;;;;;;;;;1.31;100.00;99388.59;5018395;28;20343;-45
2021/12/10 03:01:56;;;;;;;;;;;;;;;1.32;100.00;99374.44;5035388;28;19936;-46
2021/12/10 03:04:21;;;;;;;;;;;;;;;1.35;100.00;99374.16;5033560;28;19916;-44
2021/12/10 03:06:50;;;;;;;;;;;;;;;1.37;100.00;99361.72;5033569;28;19919;-45
2021/12/10 03:09:16;;;;;;;;;;;;;;;1.38;100.00;99362.56;5034280;28;19921;-43
2021/12/10 03:11:46;;;;;;;;;;;;;;;1.38;100.00;99357.31;5035888;28;19974;-44
2021/12/10 03:14:12;;;;;;;;;;;;;;;1.39;100.00;99357.16;5033503;28;20008;-46
2021/12/10 03:16:38;;;;;;;;;;;;;;;1.40;100.00;99356.19;5034497;28;19912;-47
2021/12/10 03:19:04;;;;;;;;;;;;;;;1.40;100.00;99353.53;5033738;28;19923;-44
2021/12/10 03:21:30;;;;;;;;;;;;;;;1.42;100.00;99342.88;5034160;28;19921;-46
2021/12/10 03:23:55;;;;;;;;;;;;;;;1.43;100.00;99334.84;5033730;28;20235;-45
2021/12/10 03:26:21;;;;;;;;;;;;;;;1.43;100.00;99331.41;5034322;28;19913;-45
2021/12/10 03:28:47;;;;;;;;;;;;;;;1.43;100.00;99324.34;5034376;28;20213;-48
2021/12/10 03:31:12;;;;;;;;;;;;;;;1.40;100.00;99318.53;5042843;28;19932;-44
2021/12/10 03:33:39;;;;;;;;;;;;;;;1.42;100.00;99314.78;5056344;28;19988;-46
2021/12/10 03:36:05;;;;;;;;;;;;;;;1.43;100.00;99313.81;5057318;28;20325;-46
2021/12/10 03:38:31;;;;;;;;;;;;;;;1.44;100.00;99304.97;5057867;28;19927;-47
2021/12/10 03:40:59;;;;;;;;;;;;;;;1.46;100.00;99308.28;5057894;28;20193;-44
2021/12/10 03:43:25;;;;;;;;;;;;;;;1.47;100.00;99306.47;5057255;28;19917;-45
2021/12/10 03:45:52;;;;;;;;;;;;;;;1.49;100.00;99297.47;5057940;28;19923;-44
2021/12/10 03:48:21;;;;;;;;;;;;;;;1.52;100.00;99295.53;5057089;28;19924;-44
2021/12/10 03:50:47;;;;;;;;;;;;;;;1.55;100.00;99295.25;5056402;28;20011;-44
2021/12/10 03:53:13;;;;;;;;;;;;;;;1.60;100.00;99298.28;5057576;28;20325;-45
2021/12/10 03:55:39;;;;;;;;;;;;;;;1.66;100.00;99292.44;5057435;28;19913;-44
2021/12/10 03:58:04;;;;;;;;;;;;;;;1.70;100.00;99271.94;5056589;28;19955;-44
2021/12/10 04:00:31;;;;;;;;;;;;;;;1.74;100.00;99273.31;5056631;28;20010;-43
2021/12/10 04:02:58;;;;;;;;;;;;;;;1.77;100.00;99279.13;5057165;28;19921;-44
2021/12/10 04:05:23;;;;;;;;;;;;;;;1.83;100.00;99280.34;5055843;28;19913;-43
2021/12/10 04:07:49;;;;;;;;;;;;;;;1.86;100.00;99267.72;5056912;28;20286;-44
2021/12/10 04:10:15;;;;;;;;;;;;;;;1.88;100.00;99259.69;5057249;28;19916;-45
2021/12/10 04:12:40;;;;;;;;;;;;;;;1.88;100.00;99275.47;5058404;28;20158;-43
2021/12/10 04:15:06;;;;;;;;;;;;;;;1.92;100.00;99265.47;5056176;28;20240;-44
2021/12/10 04:17:32;;;;;;;;;;;;;;;1.92;100.00;99260.22;5056350;28;19919;-43
2021/12/10 04:19:57;;;;;;;;;;;;;;;1.93;100.00;99251.34;5055299;28;20309;-44
2021/12/10 04:22:24;;;;;;;;;;;;;;;1.93;100.00;99244.28;5056374;28;19963;-42
2021/12/10 04:24:50;;;;;;;;;;;;;;;1.94;100.00;99251.22;5056273;28;19950;-44
2021/12/10 04:27:16;;;;;;;;;;;;;;;1.96;100.00;99235.28;5055813;28;20429;-43
2021/12/10 04:29:41;;;;;;;;;;;;;;;1.98;100.00;99242.03;5056696;28;19915;-47
2021/12/10 04:32:07;;;;;;;;;;;;;;;2.01;100.00;99227.78;5043546;28;20283;-45
2021/12/10 04:34:33;;;;;;;;;;;;;;;2.03;100.00;99212.66;5036059;28;20121;-45
2021/12/10 04:36:59;;;;;;;;;;;;;;;2.03;100.00;99212.66;5036543;28;19974;-43
2021/12/10 04:39:25;;;;;;;;;;;;;;;2.04;100.00;99203.78;5037163;28;19938;-46
2021/12/10 04:41:50;;;;;;;;;;;;;;;2.04;100.00;99199.34;5051468;28;19928;-42
2021/12/10 04:44:15;;;;;;;;;;;;;;;2.02;100.00;99197.81;5054565;28;19924;-42
2021/12/10 04:46:40;;;;;;;;;;;;;;;2.02;100.00;99196.03;5057281;28;19920;-42
2021/12/10 04:49:08;;;;;;;;;;;;;;;2.00;100.00;99182.19;5055729;28;19920;-45
2021/12/10 04:51:38;;;;;;;;;;;;;;;2.00;100.00;99181.34;5056007;28;19988;-44
2021/12/10 04:54:05;;;;;;;;;;;;;;;1.99;100.00;99169.16;5055353;28;19912;-43
2021/12/10 04:56:30;;;;;;;;;;;;;;;1.96;100.00;99161.56;5056442;28;20390;-44
2021/12/10 04:58:56;;;;;;;;;;;;;;;1.95;100.00;99155.47;5055916;28;20017;-43
2021/12/10 05:01:22;;;;;;;;;;;;;;;1.95;100.00;99154.63;5056651;28;20142;-43
2021/12/10 05:03:47;;;;;;;;;;;;;;;1.94;100.00;99153.81;5054876;28;20282;-43
2021/12/10 05:06:12;;;;;;;;;;;;;;;1.93;100.00;99152.13;5055621;28;19916;-43
2021/12/10 05:08:38;;;;;;;;;;;;;;;1.92;100.00;99139.97;5056147;28;19916;-42
2021/12/10 05:11:05;;;;;;;;;;;;;;;1.93;100.00;99135.53;5037431;28;19913;-43
2021/12/10 05:13:31;;;;;;;;;;;;;;;1.91;100.00;99125.13;5054859;28;20071;-45
2021/12/10 05:15:58;;;;;;;;;;;;;;;1.91;100.00;99135.66;5056244;28;20027;-43
2021/12/10 05:18:26;;;;;;;;;;;;;;;1.91;100.00;99137.47;5054319;28;19924;-46
2021/12/10 05:20:51;;;;;;;;;;;;;;;1.89;100.00;99132.34;5045374;28;19985;-43
2021/12/10 05:23:17;;;;;;;;;;;;;;;1.90;100.00;99139.28;5049613;28;20355;-47
2021/12/10 05:25:43;;;;;;;;;;;;;;;1.92;100.00;99129.44;5036425;28;19938;-43
2021/12/10 05:28:08;;;;;;;;;;;;;;;1.93;100.00;99130.25;5051934;28;19969;-45
2021/12/10 05:30:34;;;;;;;;;;;;;;;1.95;100.00;99125.66;5053585;28;20007;-41
2021/12/10 05:33:01;;;;;;;;;;;;;;;1.95;100.00;99134.41;5054162;28;20513;-41
2021/12/10 05:35:27;;;;;;;;;;;;;;;1.95;100.00;99121.25;5054314;28;19970;-41
2021/12/10 05:37:52;;;;;;;;;;;;;;;1.95;100.00;99118.63;5055622;28;19920;-44
2021/12/10 05:40:17;;;;;;;;;;;;;;;1.94;100.00;99116.94;5053971;28;20176;-41
2021/12/10 05:42:44;;;;;;;;;;;;;;;1.96;100.00;99106.28;5055323;28;19928;-44
2021/12/10 05:45:10;;;;;;;;;;;;;;;1.95;100.00;99105.44;5055120;28;19916;-43
2021/12/10 05:47:36;;;;;;;;;;;;;;;1.95;100.00;99096.72;5055346;28;19927;-43
2021/12/10 05:50:02;;;;;;;;;;;;;;;1.94;100.00;99102.97;5053095;28;19908;-42
2021/12/10 05:52:27;;;;;;;;;;;;;;;1.92;100.00;99103.13;5054363;28;19988;-42
2021/12/10 05:54:52;;;;;;;;;;;;;;;1.93;100.00;99103.94;5055062;28;19958;-42
2021/12/10 05:57:18;;;;;;;;;;;;;;;1.93;100.00;99107.38;5055214;28;19912;-42
2021/12/10 05:59:43;;;;;;;;;;;;;;;1.97;100.00;99100.00;5036472;28;19949;-43
2021/12/10 06:02:09;;;;;;;;;;;;;;;1.96;100.00;99093.09;5038550;28;19917;-44
2021/12/10 06:04:34;;;;;;;;;;;;;;;1.98;100.00;99097.22;5034883;28;19920;-42
2021/12/10 06:07:00;;;;;;;;;;;;;;;2.00;100.00;99094.44;5040752;28;19920;-44
2021/12/10 06:09:25;;;;;;;;;;;;;;;2.00;100.00;99095.31;5036015;28;19935;-40
2021/12/10 06:11:50;;;;;;;;;;;;;;;2.03;100.00;99089.72;5055277;28;20350;-44
2021/12/10 06:14:16;;;;;;;;;;;;;;;2.05;100.00;99097.47;5053936;28;20086;-44
2021/12/10 06:16:41;;;;;;;;;;;;;;;2.06;100.00;99088.59;5055323;28;19912;-43
2021/12/10 06:19:07;;;;;;;;;;;;;;;2.08;100.00;99081.38;5054001;28;19917;-43
2021/12/10 06:21:33;;;;;;;;;;;;;;;2.08;100.00;99085.81;5054909;28;20042;-44
2021/12/10 06:23:59;;;;;;;;;;;;;;;2.08;100.00;99083.19;5054790;28;19920;-46
2021/12/10 06:26:24;;;;;;;;;;;;;;;2.07;100.00;99077.09;5054670;28;19945;-44
2021/12/10 06:28:49;;;;;;;;;;;;;;;2.04;100.00;99078.22;5052527;28;19921;-41
2021/12/10 06:31:16;;;;;;;;;;;;;;;2.05;100.00;99071.97;5049265;28;20001;-43
2021/12/10 06:33:41;;;;;;;;;;;;;;;2.06;100.00;99067.53;5034903;28;20340;-42
2021/12/10 06:36:07;;;;;;;;;;;;;;;2.08;100.00;99084.00;5049044;28;20019;-44
2021/12/10 06:38:34;;;;;;;;;;;;;;;2.05;100.00;99074.63;5053915;28;20748;-45
2021/12/10 06:40:59;;;;;;;;;;;;;;;2.09;100.00;99072.50;5054450;28;20418;-42
2021/12/10 06:43:25;;;;;;;;;;;;;;;2.10;100.00;99079.41;5053992;28;20016;-43
2021/12/10 06:45:51;;;;;;;;;;;;;;;2.09;100.00;99069.03;5054089;28;20391;-42
2021/12/10 06:48:18;;;;;;;;;;;;;;;2.07;100.00;99073.63;5054136;28;20675;-45
2021/12/10 06:50:48;;;;;;;;;;;;;;;2.04;100.00;99082.66;5054861;28;19915;-43
2021/12/10 06:53:13;;;;;;;;;;;;;;;2.01;100.00;99077.69;5053814;28;20378;-42
2021/12/10 06:55:38;;;;;;;;;;;;;;;2.01;100.00;99080.31;5055183;28;19920;-45
2021/12/10 06:58:04;;;;;;;;;;;;;;;2.01;100.00;99077.69;5054008;28;20003;-43
2021/12/10 07:00:32;;;;;;;;;;;;;;;2.02;100.00;99088.06;5053829;28;21460;-45
2021/12/10 07:02:58;;;;;;;;;;;;;;;2.04;100.00;99087.94;5051437;28;20177;-42
2021/12/10 07:05:23;;;;;;;;;;;;;;;2.04;100.00;99086.13;5054728;28;19931;-43
2021/12/10 07:07:49;;;;;;;;;;;;;;;2.07;100.00;99086.78;5058320;28;19917;-42
2021/12/10 07:10:15;;;;;;;;;;;;;;;2.07;100.00;99090.28;5058026;28;19924;-43
2021/12/10 07:12:40;;;;;;;;;;;;;;;2.07;100.00;99086.78;5057550;28;19917;-43
2021/12/10 07:15:09;;;;;;;;;;;;;;;2.08;100.00;99084.00;5057603;28;19939;-42
2021/12/10 07:17:34;;;;;;;;;;;;;;;2.07;100.00;99085.00;5058351;28;19935;-44
2021/12/10 07:20:00;;;;;;;;;;;;;;;2.10;100.00;99083.84;5036171;28;20362;-44
2021/12/10 07:22:25;;;;;;;;;;;;;;;2.11;100.00;99088.97;5037979;28;20093;-42
2021/12/10 07:24:50;;;;;;;;;;;;;;;2.12;100.00;99076.63;5043557;28;20123;-44
2021/12/10 07:27:15;;;;;;;;;;;;;;;2.13;100.00;99086.19;5057763;28;20308;-42
2021/12/10 07:29:41;;;;;;;;;;;;;;;2.12;100.00;99080.13;5056862;28;19913;-44
2021/12/10 07:32:06;;;;;;;;;;;;;;;2.13;100.00;99086.19;5046519;28;19982;-42
2021/12/10 07:34:32;;;;;;;;;;;;;;;2.14;100.00;99086.06;5056405;28;20169;-43
2021/12/10 07:36:57;;;;;;;;;;;;;;;2.16;100.00;99072.72;5056000;28;19927;-42
2021/12/10 07:39:22;;;;;;;;;;;;;;;2.18;100.00;99076.03;5056399;28;19908;-45
2021/12/10 07:41:47;;;;;;;;;;;;;;;2.20;100.00;99076.72;5058119;28;20054;-42
2021/12/10 07:44:13;;;;;;;;;;;;;;;2.22;100.00;99077.38;5056266;28;19940;-43
2021/12/10 07:46:40;;;;;;;;;;;;;;;2.22;100.00;99083.50;5057638;28;20149;-46
2021/12/10 07:49:13;;;;;;;;;;;;;;;2.23;100.00;99084.31;5055453;28;19916;-43
2021/12/10 07:51:38;;;;;;;;;;;;;;;2.28;100.00;99081.25;5056570;28;19916;-42
2021/12/10 07:54:04;;;;;;;;;;;;;;;2.28;100.00;99083.88;5056804;28;19912;-44
2021/12/10 07:56:30;;;;;;;;;;;;;;;2.30;100.00;99084.53;5055416;28;19932;-44
2021/12/10 07:58:55;;;;;;;;;;;;;;;2.32;100.00;99095.75;5054153;28;19919;-47
2021/12/10 08:01:24;;;;;;;;;;;;;;;2.34;100.00;99099.91;5056952;28;19916;-44
2021/12/10 08:03:50;;;;;;;;;;;;;;;2.36;100.00;99097.94;5055475;28;19980;-43
2021/12/10 08:06:17;;;;;;;;;;;;;;;2.39;100.00;99094.16;5055527;28;20007;-43
2021/12/10 08:08:42;;;;;;;;;;;;;;;2.41;100.00;99090.41;5057949;28;19914;-43
2021/12/10 08:11:08;;;;;;;;;;;;;;;2.43;100.00;99096.34;5056609;28;19912;-42
2021/12/10 08:13:33;;;;;;;;;;;;;;;2.45;100.00;99088.28;5055689;28;19912;-41
2021/12/10 08:15:58;;;;;;;;;;;;;;;2.49;100.00;99100.16;5056317;28;20306;-41
2021/12/10 08:18:24;;;;;;;;;;;;;;;2.52;100.00;99085.88;5056111;28;19937;-42
2021/12/10 08:20:49;;;;;;;;;;;;;;;2.54;100.00;99090.00;5056638;28;19998;-42
2021/12/10 08:23:14;;;;;;;;;;;;;;;2.58;100.00;99093.16;5055718;28;19932;-43
2021/12/10 08:25:39;;;;;;;;;;;;;;;2.61;100.00;99088.44;5057121;28;20414;-43
2021/12/10 08:28:05;;;;;;;;;;;;;;;2.63;100.00;99097.97;5055703;28;19924;-45
2021/12/10 08:30:31;;;;;;;;;;;;;;;2.66;100.00;99097.66;5056491;28;20133;-41
2021/12/10 08:32:56;;;;;;;;;;;;;;;2.67;100.00;99096.69;5036056;28;19917;-42
2021/12/10 08:35:23;;;;;;;;;;;;;;;2.69;100.00;99090.28;5035007;28;19913;-42
2021/12/10 08:37:49;;;;;;;;;;;;;;;2.70;100.00;99093.72;5019002;28;19974;-43
2021/12/10 08:40:16;;;;;;;;;;;;;;;2.73;100.00;99096.91;5018788;28;19916;-43
2021/12/10 08:42:42;;;;;;;;;;;;;;;2.76;100.00;99090.50;5035379;28;19967;-42
2021/12/10 08:45:07;;;;;;;;;;;;;;;2.77;100.00;99094.78;5035991;28;20066;-40
2021/12/10 08:47:33;;;;;;;;;;;;;;;2.79;100.00;99098.91;5037098;28;19912;-44
2021/12/10 08:49:58;;;;;;;;;;;;;;;2.81;100.00;99098.75;5035190;28;19951;-41
2021/12/10 08:52:23;;;;;;;;;;;;;;;2.82;100.00;99103.06;5036004;28;19913;-41
2021/12/10 08:54:49;;;;;;;;;;;;;;;2.83;100.00;99091.53;5036152;28;19975;-43
2021/12/10 08:57:14;;;;;;;;;;;;;;;2.85;100.00;99094.84;5036118;28;19917;-43
2021/12/10 08:59:39;;;;;;;;;;;;;;;2.87;100.00;99094.69;5034735;28;19935;-42
2021/12/10 09:02:07;;;;;;;;;;;;;;;2.87;100.00;99097.31;5036433;28;19923;-41
2021/12/10 09:04:33;;;;;;;;;;;;;;;2.88;100.00;99091.88;5035495;28;19964;-41
2021/12/10 09:07:02;;;;;;;;;;;;;;;2.91;100.00;99109.22;5035489;28;20003;-43
2021/12/10 09:09:30;;;;;;;;;;;;;;;2.93;100.00;99107.25;5034906;28;20132;-42
2021/12/10 09:11:56;;;;;;;;;;;;;;;2.96;100.00;99114.84;5035962;28;19916;-43
2021/12/10 09:14:26;;;;;;;;;;;;;;;2.98;100.00;99113.69;5034550;28;19913;-43
2021/12/10 09:16:52;;;;;;;;;;;;;;;3.01;100.00;99117.03;5035221;28;19924;-41
2021/12/10 09:19:19;;;;;;;;;;;;;;;3.05;100.00;99113.09;5034632;28;19940;-42
2021/12/10 09:21:44;;;;;;;;;;;;;;;3.08;100.00;99113.59;5035641;28;20003;-40
2021/12/10 09:24:10;;;;;;;;;;;;;;;3.11;100.00;99120.41;5035287;28;20479;-42
2021/12/10 09:26:38;;;;;;;;;;;;;;;3.14;100.00;99115.63;5034527;28;19916;-41
2021/12/10 09:29:04;;;;;;;;;;;;;;;3.18;100.00;99116.16;5033542;28;19913;-42
2021/12/10 09:31:30;;;;;;;;;;;;;;;3.23;100.00;99119.13;5043230;28;19967;-42
2021/12/10 09:33:57;;;;;;;;;;;;;;;3.26;100.00;99118.84;5054080;28;19960;-43
2021/12/10 09:36:22;;;;;;;;;;;;;;;3.32;100.00;99117.38;5054861;28;19923;-44
2021/12/10 09:38:48;;;;;;;;;;;;;;;3.36;100.00;99121.34;5055444;28;19913;-42
2021/12/10 09:41:14;;;;;;;;;;;;;;;3.41;100.00;99121.72;5055191;28;19966;-43
2021/12/10 09:43:40;;;;;;;;;;;;;;;3.45;100.00;99120.41;5053527;28;20214;-44
2021/12/10 09:46:05;;;;;;;;;;;;;;;3.52;100.00;99124.06;5055232;28;20307;-43
2021/12/10 09:48:32;;;;;;;;;;;;;;;3.56;100.00;99119.28;5054827;28;19969;-43
2021/12/10 09:51:03;;;;;;;;;;;;;;;3.61;100.00;99117.00;5054908;28;19966;-46
2021/12/10 09:53:29;;;;;;;;;;;;;;;3.65;100.00;99122.78;5054193;28;19924;-43
2021/12/10 09:55:54;;;;;;;;;;;;;;;3.67;100.00;99120.84;5055728;28;20210;-44
2021/12/10 09:58:20;;;;;;;;;;;;;;;3.69;100.00;99116.22;5054027;28;20279;-43
2021/12/10 10:00:50;;;;;;;;;;;;;;;3.72;100.00;99122.00;5054117;28;19945;-41
2021/12/10 10:03:17;;;;;;;;;;;;;;;3.74;100.00;99119.22;5053920;28;19972;-42
2021/12/10 10:05:45;;;;;;;;;;;;;;;3.78;100.00;99119.72;5055082;28;20416;-42
2021/12/10 10:08:15;;;;;;;;;;;;;;;3.81;100.00;99124.69;5054555;28;19971;-42
2021/12/10 10:10:42;;;;;;;;;;;;;;;3.83;100.00;99122.69;5055067;28;20501;-42
2021/12/10 10:13:10;;;;;;;;;;;;;;;3.86;100.00;99120.56;5053898;28;19916;-46
2021/12/10 10:15:38;;;;;;;;;;;;;;;3.90;100.00;99129.84;5054774;28;20314;-42
2021/12/10 10:18:05;;;;;;;;;;;;;;;3.91;100.00;99126.19;5053469;28;19966;-43
2021/12/10 10:20:32;;;;;;;;;;;;;;;3.93;100.00;99121.56;5053637;28;19921;-43
2021/12/10 10:22:57;;;;;;;;;;;;;;;3.91;100.00;99131.47;5054521;28;19924;-42
2021/12/10 10:25:24;;;;;;;;;;;;;;;3.90;100.00;99132.47;5053142;28;19919;-44
2021/12/10 10:27:49;;;;;;;;;;;;;;;3.90;100.00;99123.69;5054616;28;19920;-41
2021/12/10 10:30:18;;;;;;;;;;;;;;;3.93;100.00;99126.84;5054504;28;20233;-46
2021/12/10 10:32:45;;;;;;;;;;;;;;;3.96;100.00;99127.53;5037210;28;20420;-42
2021/12/10 10:35:22;;;;;;;;;;;;;;;3.96;100.00;99131.00;5032808;28;20400;-42
2021/12/10 10:37:49;;;;;;;;;;;;;;;3.95;100.00;99126.69;5035018;28;20244;-43
2021/12/10 10:40:16;;;;;;;;;;;;;;;3.97;100.00;99134.44;5037536;28;19928;-44
2021/12/10 10:42:43;;;;;;;;;;;;;;;3.98;100.00;99125.56;5037937;28;19965;-43
2021/12/10 10:45:11;;;;;;;;;;;;;;;4.00;100.00;99131.50;5038129;28;20308;-45
2021/12/10 10:47:36;;;;;;;;;;;;;;;4.03;100.00;99132.00;5039224;28;20347;-44
2021/12/10 10:50:13;;;;;;;;;;;;;;;4.10;100.00;99132.19;5018195;28;20029;-41
2021/12/10 10:52:43;;;;;;;;;;;;;;;4.14;100.00;99128.25;5038339;28;19923;-45
2021/12/10 10:55:11;;;;;;;;;;;;;;;4.18;100.00;99136.66;5038217;28;19924;-42
2021/12/10 10:57:39;;;;;;;;;;;;;;;4.20;100.00;99137.31;5038247;28;19920;-43
2021/12/10 11:00:34;;;;;;;;;;;;;;;4.24;100.00;99131.56;5037241;28;20171;-43
2021/12/10 11:03:03;;;;;;;;;;;;;;;4.26;100.00;99132.22;5020769;28;20376;-41
2021/12/10 11:05:31;;;;;;;;;;;;;;;4.21;100.00;99131.88;5054080;28;20011;-43
2021/12/10 11:07:58;;;;;;;;;;;;;;;4.19;100.00;99133.03;5039057;28;20405;-44
2021/12/10 11:10:29;;;;;;;;;;;;;;;4.13;100.00;99137.16;5055030;28;20112;-45
2021/12/10 11:13:06;;;;;;;;;;;;;;;4.13;100.00;99141.63;5058207;28;19909;-45
2021/12/10 11:15:31;;;;;;;;;;;;;;;4.12;100.00;99135.47;5058657;28;19932;-42
2021/12/10 11:17:56;;;;;;;;;;;;;;;4.11;100.00;99142.59;5057116;28;19912;-42
2021/12/10 11:20:25;;;;;;;;;;;;;;;4.14;100.00;99143.25;5056626;28;20011;-42
2021/12/10 11:22:53;;;;;;;;;;;;;;;4.15;100.00;99145.72;5058553;28;21892;-44
2021/12/10 11:25:21;;;;;;;;;;;;;;;4.17;100.00;99145.56;5038770;28;19920;-42
2021/12/10 11:27:47;;;;;;;;;;;;;;;4.19;100.00;99146.22;5057112;28;20090;-42
2021/12/10 11:30:18;;;;;;;;;;;;;;;4.19;100.00;99141.78;5058445;28;19913;-43
2021/12/10 11:32:43;;;;;;;;;;;;;;;4.21;100.00;99141.59;5040548;28;19916;-43
2021/12/10 11:35:17;;;;;;;;;;;;;;;4.20;100.00;99151.34;5036599;28;20334;-42
2021/12/10 11:37:52;;;;;;;;;;;;;;;4.24;100.00;99147.41;5038805;28;19947;-43
2021/12/10 11:40:38;;;;;;;;;;;;;;;4.27;100.00;99152.34;5037038;28;20003;-45
2021/12/10 11:43:19;;;;;;;;;;;;;;;4.32;100.00;99151.06;5037429;28;19936;-41
2021/12/10 11:46:05;;;;;;;;;;;;;;;4.35;100.00;99163.94;5038336;28;19996;-42
2021/12/10 11:48:33;;;;;;;;;;;;;;;4.36;100.00;99162.94;5037316;28;19917;-45
2021/12/10 11:51:01;;;;;;;;;;;;;;;4.37;100.00;99164.63;5036928;28;19917;-41
2021/12/10 11:53:33;;;;;;;;;;;;;;;4.38;100.00;99161.81;5045163;28;20023;-44
2021/12/10 11:56:04;;;;;;;;;;;;;;;4.40;100.00;99161.66;5057048;28;20287;-43
2021/12/10 11:58:29;;;;;;;;;;;;;;;4.38;100.00;99153.88;5057023;28;20330;-44
2021/12/10 12:00:55;;;;;;;;;;;;;;;4.40;100.00;99165.09;5058559;28;19909;-42
2021/12/10 12:03:23;;;;;;;;;;;;;;;4.41;100.00;99164.13;5056812;28;19928;-43
2021/12/10 12:05:49;;;;;;;;;;;;;;;4.42;100.00;99168.41;5057485;28;20408;-44
2021/12/10 12:08:17;;;;;;;;;;;;;;;4.42;100.00;99168.41;5057656;28;19919;-44
2021/12/10 12:10:44;;;;;;;;;;;;;;;4.48;100.00;99170.41;5038986;28;20046;-43
2021/12/10 12:13:25;;;;;;;;;;;;;;;4.46;100.00;99177.69;5056365;28;19909;-45
2021/12/10 12:15:50;;;;;;;;;;;;;;;4.46;100.00;99176.84;5057989;28;19939;-46
2021/12/10 12:18:22;;;;;;;;;;;;;;;4.41;97.71;99173.84;5056796;28;19999;-43
2021/12/10 12:26:37;;;;;;;;;;;;;;;4.29;99.06;99186.56;5050719;28;19978;-42
2021/12/10 12:29:05;;;;;;;;;;;;;;;4.29;100.00;99183.91;5056424;28;19948;-43
2021/12/10 12:31:31;;;;;;;;;;;;;;;4.31;100.00;99184.56;5054047;28;19920;-43
2021/12/10 12:33:59;;;;;;;;;;;;;;;4.35;100.00;99188.56;5040440;28;19952;-44
2021/12/10 12:36:34;;;;;;;;;;;;;;;4.36;100.00;99192.88;5055427;28;20297;-43
2021/12/10 12:38:59;;;;;;;;;;;;;;;4.34;100.00;99197.47;5056536;28;19939;-43
2021/12/10 12:41:27;;;;;;;;;;;;;;;4.34;100.00;99197.47;5056150;28;19920;-42
2021/12/10 12:44:22;;;;;;;;;;;;;;;4.35;100.00;99207.06;5056834;28;19921;-46
2021/12/10 12:46:55;;;;;;;;;;;;;;;4.37;100.00;99206.91;5038467;28;20000;-41
2021/12/10 12:49:20;;;;;;;;;;;;;;;4.38;100.00;99211.19;5053762;28;19930;-42
2021/12/10 12:52:20;;;;;;;;;;;;;;;4.35;100.00;99207.06;5055717;28;19912;-41
2021/12/10 12:55:04;;;;;;;;;;;;;;;4.34;100.00;99208.03;4974697;28;19918;-42
2021/12/10 12:57:47;;;;;;;;;;;;;;;4.37;100.00;99206.91;5045653;28;19932;-43
2021/12/10 13:00:22;;;;;;;;;;;;;;;4.36;100.00;99211.38;5055363;28;20015;-42
2021/12/10 13:02:49;;;;;;;;;;;;;;;4.35;100.00;99225.56;5053012;28;19935;-42
2021/12/10 13:05:14;;;;;;;;;;;;;;;4.30;99.74;99223.38;5054365;28;19913;-42